createdAt,value
2023-01-12T00:00:01.154Z,99996.66
2023-01-12T00:02:30.848Z,100000.78
2023-01-12T00:05:00.515Z,99997.84
2023-01-12T00:07:30.065Z,99998.47
2023-01-12T00:09:59.572Z,100000.81
2023-01-12T00:12:29.183Z,100001.59
2023-01-12T00:14:58.877Z,99999.22
2023-01-12T00:17:28.503Z,100002.75
2023-01-12T00:19:58.176Z,100020.41
2023-01-12T00:22:27.783Z,100023.16
2023-01-12T00:24:57.378Z,100029.47
2023-01-12T00:27:26.983Z,100024.44
2023-01-12T00:29:56.557Z,100036.06
2023-01-12T00:32:26.213Z,100027.81
2023-01-12T00:34:55.873Z,100031.56
2023-01-12T00:37:27.069Z,100035.19
2023-01-12T00:40:02.515Z,100038.13
2023-01-12T00:42:51.396Z,100050.84
2023-01-12T00:45:24.598Z,100042.91
2023-01-12T00:47:54.697Z,100051.72
2023-01-12T00:50:24.365Z,100057.00
2023-01-12T00:52:53.982Z,100044.91
2023-01-12T00:55:23.566Z,100048.44
2023-01-12T00:57:53.640Z,100057.38
2023-01-12T01:00:23.527Z,100054.84
2023-01-12T01:02:53.084Z,100054.06
2023-01-12T01:05:22.891Z,100048.91
2023-01-12T01:07:52.403Z,100050.59
2023-01-12T01:10:22.083Z,100054.22
2023-01-12T01:12:52.076Z,100054.94
2023-01-12T01:15:21.756Z,100056.81
2023-01-12T01:17:51.412Z,100057.47
2023-01-12T01:20:21.877Z,100047.97
2023-01-12T01:22:51.682Z,100054.25
2023-01-12T01:25:21.481Z,100052.47
2023-01-12T01:27:51.201Z,100053.75
2023-01-12T01:30:20.869Z,100045.88
2023-01-12T01:32:50.538Z,100044.47
2023-01-12T01:35:20.284Z,100045.56
2023-01-12T01:37:49.958Z,100048.13
2023-01-12T01:40:19.694Z,100049.53
2023-01-12T01:42:49.335Z,100046.75
2023-01-12T01:45:19.221Z,100029.28
2023-01-12T01:48:00.205Z,100031.97
2023-01-12T01:50:43.871Z,100037.59
2023-01-12T01:53:21.323Z,100034.63
2023-01-12T01:56:02.210Z,100033.06
2023-01-12T01:59:19.456Z,100027.88
2023-01-12T02:01:49.237Z,100030.31
2023-01-12T02:04:18.972Z,100020.66
2023-01-12T02:06:49.920Z,100021.03
2023-01-12T02:09:26.120Z,100008.63
2023-01-12T02:12:15.573Z,100016.09
2023-01-12T02:15:26.600Z,100009.91
2023-01-12T02:18:45.787Z,100004.38
2023-01-12T02:21:52.149Z,100015.47
2023-01-12T02:24:39.766Z,100020.06
2023-01-12T02:28:02.743Z,100013.56
2023-01-12T02:30:59.736Z,100008.81
2023-01-12T02:33:48.319Z,100010.94
2023-01-12T02:36:37.351Z,100001.22
2023-01-12T02:39:39.111Z,100003.34
2023-01-12T02:42:47.694Z,100002.06
2023-01-12T02:45:56.160Z,100005.22
2023-01-12T02:48:35.737Z,100003.41
2023-01-12T02:51:15.654Z,100008.75
2023-01-12T02:54:11.196Z,100010.22
2023-01-12T02:56:55.708Z,100012.91
2023-01-12T02:59:33.871Z,100020.59
2023-01-12T03:02:09.247Z,100018.63
2023-01-12T03:04:40.288Z,100014.19
2023-01-12T03:07:27.745Z,100013.44
2023-01-12T03:10:36.317Z,100016.09
2023-01-12T03:13:13.989Z,100013.44
2023-01-12T03:15:51.840Z,100002.88
2023-01-12T03:18:34.411Z,100004.47
2023-01-12T03:21:17.835Z,100011.53
2023-01-12T03:23:56.173Z,100015.94
2023-01-12T03:26:28.046Z,100019.72
2023-01-12T03:29:49.404Z,100015.09
2023-01-12T03:32:21.307Z,100021.91
2023-01-12T03:34:51.116Z,100023.25
2023-01-12T03:37:42.736Z,100021.88
2023-01-12T03:40:19.488Z,100023.78
2023-01-12T03:43:04.228Z,100016.31
2023-01-12T03:46:03.816Z,100016.41
2023-01-12T03:49:07.004Z,100017.66
2023-01-12T03:51:42.696Z,100018.66
2023-01-12T03:54:15.041Z,100011.38
2023-01-12T03:56:46.420Z,100016.47
2023-01-12T03:59:17.014Z,100014.63
2023-01-12T04:01:49.038Z,100017.13
2023-01-12T04:04:20.231Z,100010.28
2023-01-12T04:06:49.847Z,100017.34
2023-01-12T04:09:20.037Z,100012.53
2023-01-12T04:12:08.074Z,100018.75
2023-01-12T04:14:46.881Z,100017.00
2023-01-12T04:17:17.782Z,100027.16
2023-01-12T04:19:48.897Z,100028.72
2023-01-12T04:22:38.279Z,100023.03
2023-01-12T04:25:19.974Z,100005.91
2023-01-12T04:27:57.391Z,100017.41
2023-01-12T04:30:29.151Z,100021.72
2023-01-12T04:33:01.298Z,100020.72
2023-01-12T04:35:31.808Z,100015.69
2023-01-12T04:38:08.151Z,100015.41
2023-01-12T04:40:38.602Z,100012.03
2023-01-12T04:43:12.077Z,100017.66
2023-01-12T04:45:43.833Z,100017.81
2023-01-12T04:48:16.517Z,100021.00
2023-01-12T04:50:46.265Z,100016.63
2023-01-12T04:53:15.911Z,100026.94
2023-01-12T04:55:45.528Z,100019.03
2023-01-12T04:58:15.125Z,100013.88
2023-01-12T05:00:45.149Z,100014.47
2023-01-12T05:03:16.467Z,100018.81
2023-01-12T05:05:46.134Z,100017.84
2023-01-12T05:08:34.565Z,100018.81
2023-01-12T05:11:04.243Z,100015.41
2023-01-12T05:13:33.839Z,100032.22
2023-01-12T05:16:18.173Z,100037.66
2023-01-12T05:18:48.085Z,100038.59
2023-01-12T05:21:18.587Z,100036.38
2023-01-12T05:23:49.439Z,100029.66
2023-01-12T05:26:19.229Z,100033.94
2023-01-12T05:28:50.987Z,100034.88
2023-01-12T05:31:20.997Z,100038.34
2023-01-12T05:33:50.660Z,100041.91
2023-01-12T05:36:20.757Z,100040.09
2023-01-12T05:38:50.318Z,100043.34
2023-01-12T05:41:19.911Z,100048.94
2023-01-12T05:43:52.627Z,100050.72
2023-01-12T05:46:33.562Z,100046.28
2023-01-12T05:49:03.092Z,100052.84
2023-01-12T05:51:32.845Z,100051.38
2023-01-12T05:54:03.292Z,100057.66
2023-01-12T05:56:34.093Z,100062.75
2023-01-12T05:59:04.822Z,100066.75
2023-01-12T06:01:34.426Z,100068.25
2023-01-12T06:04:04.220Z,100071.00
2023-01-12T06:06:33.813Z,100077.16
2023-01-12T06:09:03.660Z,100074.22
2023-01-12T06:11:51.855Z,100081.78
2023-01-12T06:14:21.838Z,100081.63
2023-01-12T06:16:51.409Z,100059.38
2023-01-12T06:19:20.937Z,100073.47
2023-01-12T06:21:51.699Z,100074.63
2023-01-12T06:24:21.859Z,100078.06
2023-01-12T06:26:51.393Z,100077.28
2023-01-12T06:29:21.521Z,100079.75
2023-01-12T06:31:50.979Z,100083.34
2023-01-12T06:34:20.676Z,100070.94
2023-01-12T06:36:50.190Z,100080.44
2023-01-12T06:39:19.715Z,100082.97
2023-01-12T06:42:07.789Z,100084.09
2023-01-12T06:44:37.405Z,100081.47
2023-01-12T06:47:06.223Z,100083.34
2023-01-12T06:49:35.830Z,100086.47
2023-01-12T06:52:06.697Z,100072.47
2023-01-12T06:54:36.298Z,100081.78
2023-01-12T06:57:05.843Z,100083.16
2023-01-12T06:59:36.516Z,100090.72
2023-01-12T07:02:15.456Z,100090.06
2023-01-12T07:04:45.177Z,100100.69
2023-01-12T07:07:14.900Z,100104.84
2023-01-12T07:09:44.491Z,100105.31
2023-01-12T07:12:14.049Z,100113.16
2023-01-12T07:14:43.658Z,100117.91
2023-01-12T07:17:13.294Z,100113.31
2023-01-12T07:19:43.557Z,100115.81
2023-01-12T07:22:13.158Z,100114.03
2023-01-12T07:24:42.751Z,100115.66
2023-01-12T07:27:12.263Z,100106.09
2023-01-12T07:29:42.005Z,100108.34
2023-01-12T07:32:11.572Z,100112.69
2023-01-12T07:34:41.181Z,100105.31
2023-01-12T07:37:10.807Z,100106.69
2023-01-12T07:39:42.048Z,100105.31
2023-01-12T07:42:23.573Z,100106.56
2023-01-12T07:44:53.603Z,100098.00
2023-01-12T07:47:23.234Z,100094.16
2023-01-12T07:49:52.761Z,100099.16
2023-01-12T07:52:22.284Z,100100.88
2023-01-12T07:54:51.823Z,100094.91
2023-01-12T07:57:21.494Z,100097.53
2023-01-12T07:59:51.049Z,100104.16
2023-01-12T08:02:20.703Z,100104.72
2023-01-12T08:04:49.557Z,100103.75
2023-01-12T08:07:19.167Z,100105.94
2023-01-12T08:09:48.813Z,100105.50
2023-01-12T08:12:18.299Z,100103.38
2023-01-12T08:14:48.007Z,100095.81
2023-01-12T08:17:21.667Z,100114.63
2023-01-12T08:20:01.541Z,100111.22
2023-01-12T08:22:41.408Z,100108.81
2023-01-12T08:25:20.792Z,100119.94
2023-01-12T08:27:55.870Z,100126.34
2023-01-12T08:30:26.384Z,100124.31
2023-01-12T08:33:00.174Z,100138.56
2023-01-12T08:35:33.646Z,100134.94
2023-01-12T08:38:03.310Z,100141.88
2023-01-12T08:40:51.374Z,100120.78
2023-01-12T08:43:40.936Z,100126.72
2023-01-12T08:46:10.679Z,100133.53
2023-01-12T08:48:40.471Z,100143.25
2023-01-12T08:51:10.252Z,100144.03
2023-01-12T08:53:39.772Z,100134.78
2023-01-12T08:56:09.323Z,100139.63
2023-01-12T08:58:39.377Z,100139.91
2023-01-12T09:01:15.897Z,100132.97
2023-01-12T09:03:46.079Z,100137.13
2023-01-12T09:06:24.401Z,100129.09
2023-01-12T09:09:08.617Z,100127.84
2023-01-12T09:11:41.603Z,100132.66
2023-01-12T09:14:16.593Z,100130.31
2023-01-12T09:16:46.413Z,100126.84
2023-01-12T09:19:16.084Z,100123.47
2023-01-12T09:21:45.790Z,100125.00
2023-01-12T09:24:16.019Z,100128.69
2023-01-12T09:26:47.752Z,100134.97
2023-01-12T09:29:17.277Z,100134.59
2023-01-12T09:31:47.308Z,100117.63
2023-01-12T09:34:16.916Z,100125.81
2023-01-12T09:36:46.690Z,100118.25
2023-01-12T09:39:27.507Z,100116.06
2023-01-12T09:42:18.378Z,100120.53
2023-01-12T09:45:10.828Z,100122.78
2023-01-12T09:47:56.442Z,100132.63
2023-01-12T09:50:34.015Z,100126.72
2023-01-12T09:53:20.840Z,100128.34
2023-01-12T09:56:09.989Z,100127.09
2023-01-12T09:58:48.217Z,100128.88
2023-01-12T10:01:29.234Z,100130.47
2023-01-12T10:04:02.323Z,100129.00
2023-01-12T10:06:33.630Z,100131.13
2023-01-12T10:09:10.187Z,100135.38
2023-01-12T10:12:06.291Z,100134.03
2023-01-12T10:15:30.139Z,100138.22
2023-01-12T10:18:21.732Z,100132.53
2023-01-12T10:20:52.245Z,100117.38
2023-01-12T10:23:24.923Z,100123.53
2023-01-12T10:26:23.340Z,100124.56
2023-01-12T10:28:56.379Z,100136.91
2023-01-12T10:31:27.240Z,100131.53
2023-01-12T10:34:13.163Z,100123.50
2023-01-12T10:36:55.734Z,100120.72
2023-01-12T10:39:52.719Z,100120.34
2023-01-12T10:42:43.992Z,100117.97
2023-01-12T10:45:24.925Z,100118.19
2023-01-12T10:47:56.392Z,100118.41
2023-01-12T10:50:33.166Z,100118.69
2023-01-12T10:53:15.945Z,100118.75
2023-01-12T10:55:47.611Z,100107.81
2023-01-12T10:58:27.875Z,100113.88
2023-01-12T11:00:58.765Z,100118.81
2023-01-12T11:03:40.987Z,100119.44
2023-01-12T11:06:35.674Z,100107.97
2023-01-12T11:09:28.710Z,100098.75
2023-01-12T11:12:03.613Z,100104.91
2023-01-12T11:14:38.284Z,100090.06
2023-01-12T11:17:49.925Z,100100.50
2023-01-12T11:20:35.314Z,100096.38
2023-01-12T11:23:54.580Z,100095.47
2023-01-12T11:26:51.165Z,100085.66
2023-01-12T11:29:56.437Z,100091.53
2023-01-12T11:32:57.468Z,100086.13
2023-01-12T11:36:19.907Z,100090.88
2023-01-12T11:39:01.703Z,100084.47
2023-01-12T11:42:27.357Z,100087.50
2023-01-12T11:45:39.922Z,100076.78
2023-01-12T11:49:02.950Z,100081.63
2023-01-12T11:51:32.475Z,100076.47
2023-01-12T11:54:02.073Z,100070.09
2023-01-12T11:56:53.461Z,100072.00
2023-01-12T11:59:56.716Z,100065.94
2023-01-12T12:03:40.046Z,100061.75
2023-01-12T12:06:59.350Z,100053.47
2023-01-12T12:10:13.954Z,100046.38
2023-01-12T12:13:03.583Z,100047.19
2023-01-12T12:16:15.929Z,100060.97
2023-01-12T12:19:46.184Z,100059.13
2023-01-12T12:22:49.087Z,100065.75
2023-01-12T12:26:11.759Z,100058.69
2023-01-12T12:29:22.868Z,100061.78
2023-01-12T12:32:27.758Z,100053.94
2023-01-12T12:35:30.917Z,100043.00
2023-01-12T12:38:34.629Z,100038.34
2023-01-12T12:42:14.230Z,100044.13
2023-01-12T12:45:20.665Z,100049.78
2023-01-12T12:48:08.496Z,100052.91
2023-01-12T12:50:50.351Z,100044.63
2023-01-12T12:53:35.995Z,100044.69
2023-01-12T12:56:14.473Z,100041.28
2023-01-12T12:58:53.820Z,100039.53
2023-01-12T13:01:23.440Z,100028.97
2023-01-12T13:03:58.246Z,100034.16
2023-01-12T13:06:40.344Z,100031.44
2023-01-12T13:09:17.828Z,100023.59
2023-01-12T13:12:33.590Z,100037.09
2023-01-12T13:15:32.780Z,100039.56
2023-01-12T13:18:01.477Z,100035.94
2023-01-12T13:20:56.637Z,100032.84
2023-01-12T13:23:49.281Z,100027.69
2023-01-12T13:26:38.481Z,100032.09
2023-01-12T13:29:39.138Z,100025.84
2023-01-12T13:32:35.986Z,100027.84
2023-01-12T13:35:34.569Z,100036.09
2023-01-12T13:38:34.399Z,100029.72
2023-01-12T13:41:12.465Z,100034.13
2023-01-12T13:43:59.102Z,100033.91
2023-01-12T13:46:53.384Z,100040.22
2023-01-12T13:49:35.971Z,100038.47
2023-01-12T13:52:17.296Z,100036.56
2023-01-12T13:54:51.601Z,100037.53
2023-01-12T13:57:29.343Z,100041.38
2023-01-12T14:00:22.208Z,100034.22
2023-01-12T14:02:53.587Z,100042.75
2023-01-12T14:06:09.092Z,100034.91
2023-01-12T14:09:25.039Z,100038.63
2023-01-12T14:12:28.463Z,100041.13
2023-01-12T14:15:59.153Z,100056.03
2023-01-12T14:18:47.193Z,100047.63
2023-01-12T14:21:44.262Z,100054.84
2023-01-12T14:24:25.083Z,100045.13
2023-01-12T14:26:55.500Z,100047.00
2023-01-12T14:29:25.096Z,100049.69
2023-01-12T14:31:55.250Z,100047.28
2023-01-12T14:34:52.462Z,100050.84
2023-01-12T14:37:33.068Z,100043.19
2023-01-12T14:40:02.681Z,100054.56
2023-01-12T14:42:51.696Z,100047.41
2023-01-12T14:45:47.562Z,100053.75
2023-01-12T14:48:31.182Z,100056.19
2023-01-12T14:51:25.454Z,100065.16
2023-01-12T14:54:20.547Z,100043.66
2023-01-12T14:57:07.601Z,100046.56
2023-01-12T14:59:45.673Z,100047.91
2023-01-12T15:02:15.491Z,100051.06
2023-01-12T15:05:01.096Z,100050.22
2023-01-12T15:07:55.264Z,100039.47
2023-01-12T15:10:36.037Z,100041.09
2023-01-12T15:13:34.831Z,100038.31
2023-01-12T15:16:24.438Z,100039.13
2023-01-12T15:19:12.413Z,100033.81
2023-01-12T15:22:03.512Z,100026.97
2023-01-12T15:24:54.701Z,100029.63
2023-01-12T15:27:25.404Z,100038.03
2023-01-12T15:29:55.665Z,100036.97
2023-01-12T15:32:53.126Z,100042.56
2023-01-12T15:35:26.592Z,100039.59
2023-01-12T15:37:58.886Z,100032.84
2023-01-12T15:40:30.147Z,100040.13
2023-01-12T15:43:00.036Z,100035.91
2023-01-12T15:45:42.898Z,100041.88
2023-01-12T15:48:14.323Z,100036.09
2023-01-12T15:50:46.648Z,100040.06
2023-01-12T15:53:21.968Z,100031.69
2023-01-12T15:55:52.559Z,100030.25
2023-01-12T15:58:22.213Z,100030.56
2023-01-12T16:00:52.733Z,100030.88
2023-01-12T16:03:54.558Z,100038.91
2023-01-12T16:06:12.392Z,100035.41
2023-01-12T16:08:40.736Z,100037.34
2023-01-12T16:11:18.019Z,100044.88
2023-01-12T16:13:49.779Z,100043.16
2023-01-12T16:16:21.555Z,100035.00
2023-01-12T16:18:51.239Z,100049.03
2023-01-12T16:21:23.923Z,100050.22
2023-01-12T16:23:55.360Z,100050.16
2023-01-12T16:26:27.974Z,100055.09
2023-01-12T16:28:58.500Z,100049.66
2023-01-12T16:31:28.663Z,100057.09
2023-01-12T16:33:58.809Z,100054.47
2023-01-12T16:36:28.403Z,100060.31
2023-01-12T16:38:58.768Z,100056.63
2023-01-12T16:41:28.537Z,100060.19
2023-01-12T16:43:59.611Z,100064.91
2023-01-12T16:46:29.168Z,100057.31
2023-01-12T16:48:59.159Z,100056.06
2023-01-12T16:51:28.690Z,100062.41
2023-01-12T16:53:59.521Z,100065.38
2023-01-12T16:56:29.709Z,100052.44
2023-01-12T16:58:59.649Z,100063.31
2023-01-12T17:01:29.601Z,100053.78
2023-01-12T17:04:00.737Z,100052.16
2023-01-12T17:06:31.207Z,100056.94
2023-01-12T17:09:06.462Z,100054.78
2023-01-12T17:11:35.607Z,100053.91
2023-01-12T17:14:23.093Z,100055.94
2023-01-12T17:16:58.686Z,100057.84
2023-01-12T17:19:31.828Z,100064.66
2023-01-12T17:22:02.869Z,100057.53
2023-01-12T17:24:35.264Z,100063.56
2023-01-12T17:27:05.240Z,100061.41
2023-01-12T17:29:36.045Z,100059.16
2023-01-12T17:32:08.282Z,100055.34
2023-01-12T17:34:40.853Z,100054.81
2023-01-12T17:37:14.425Z,100061.25
2023-01-12T17:39:47.399Z,100056.72
2023-01-12T17:42:37.337Z,100053.03
2023-01-12T17:45:08.093Z,100062.22
2023-01-12T17:47:38.651Z,100055.41
2023-01-12T17:50:11.469Z,100059.34
2023-01-12T17:52:42.992Z,100048.66
2023-01-12T17:55:13.515Z,100052.75
2023-01-12T17:57:44.186Z,100051.97
2023-01-12T18:00:15.810Z,100053.25
2023-01-12T18:02:50.283Z,100051.28
2023-01-12T18:05:20.877Z,100048.09
2023-01-12T18:07:51.588Z,100050.09
2023-01-12T18:10:22.765Z,100050.56
2023-01-12T18:12:50.617Z,100039.88
2023-01-12T18:15:20.371Z,100047.72
2023-01-12T18:17:50.110Z,100052.25
2023-01-12T18:20:19.858Z,100055.47
2023-01-12T18:22:50.691Z,100042.41
2023-01-12T18:25:21.337Z,100048.25
2023-01-12T18:27:51.865Z,100050.47
2023-01-12T18:30:21.679Z,100051.16
2023-01-12T18:32:51.346Z,100053.31
2023-01-12T18:35:20.993Z,100042.94
2023-01-12T18:37:50.612Z,100035.94
2023-01-12T18:40:20.493Z,100044.53
2023-01-12T18:42:50.165Z,100034.41
2023-01-12T18:45:24.774Z,100048.03
2023-01-12T18:48:13.023Z,100051.28
2023-01-12T18:51:01.180Z,100056.38
2023-01-12T18:53:34.101Z,100052.97
2023-01-12T18:56:06.072Z,100040.31
2023-01-12T18:58:37.237Z,100039.06
2023-01-12T19:01:14.285Z,100039.81
2023-01-12T19:03:44.860Z,100045.91
2023-01-12T19:06:42.394Z,100052.13
2023-01-12T19:09:32.218Z,100053.88
2023-01-12T19:12:04.416Z,100058.88
2023-01-12T19:14:58.037Z,100057.94
2023-01-12T19:17:32.809Z,100057.28
2023-01-12T19:20:16.203Z,100061.75
2023-01-12T19:23:05.296Z,100050.28
2023-01-12T19:25:53.170Z,100054.41
2023-01-12T19:28:36.087Z,100048.16
2023-01-12T19:31:11.113Z,100044.03
2023-01-12T19:33:42.773Z,100044.94
2023-01-12T19:36:16.130Z,100045.00
2023-01-12T19:38:50.539Z,100052.28
2023-01-12T19:41:39.023Z,100050.66
2023-01-12T19:44:08.818Z,100045.09
2023-01-12T19:46:39.398Z,100048.78
2023-01-12T19:49:10.850Z,100039.28
2023-01-12T19:51:46.876Z,100040.00
2023-01-12T19:54:14.871Z,100041.94
2023-01-12T19:56:47.635Z,100044.28
2023-01-12T19:59:19.624Z,100044.28
2023-01-12T20:01:48.125Z,100040.50
2023-01-12T20:04:18.741Z,100039.06
2023-01-12T20:06:48.660Z,100037.34
2023-01-12T20:09:19.388Z,100033.47
2023-01-12T20:11:52.830Z,100021.88
2023-01-12T20:14:23.748Z,100024.97
2023-01-12T20:16:54.297Z,100022.63
2023-01-12T20:19:24.226Z,100020.63
2023-01-12T20:21:55.542Z,100022.47
2023-01-12T20:24:25.246Z,100020.91
2023-01-12T20:26:55.235Z,100018.38
2023-01-12T20:29:25.870Z,100026.41
2023-01-12T20:31:56.460Z,100022.91
2023-01-12T20:34:26.151Z,100027.19
2023-01-12T20:36:56.325Z,100026.44
2023-01-12T20:39:24.346Z,100024.34
2023-01-12T20:41:54.620Z,100025.75
2023-01-12T20:44:24.368Z,100029.25
2023-01-12T20:46:54.913Z,100027.84
2023-01-12T20:49:25.075Z,100024.13
2023-01-12T20:51:54.928Z,100036.91
2023-01-12T20:54:27.998Z,100037.06
2023-01-12T20:56:59.475Z,100041.59
2023-01-12T20:59:30.143Z,100033.50
2023-01-12T21:02:14.374Z,100039.13
2023-01-12T21:04:45.109Z,100042.63
2023-01-12T21:07:16.642Z,100050.75
2023-01-12T21:09:47.960Z,100044.13
2023-01-12T21:12:17.599Z,100045.53
2023-01-12T21:14:48.113Z,100048.97
2023-01-12T21:17:16.865Z,100052.97
2023-01-12T21:19:47.408Z,100053.03
2023-01-12T21:22:18.041Z,100045.78
2023-01-12T21:24:50.451Z,100045.53
2023-01-12T21:27:20.092Z,100045.59
2023-01-12T21:29:50.649Z,100049.63
2023-01-12T21:32:23.362Z,100046.94
2023-01-12T21:34:54.640Z,100049.16
2023-01-12T21:37:25.176Z,100052.84
2023-01-12T21:39:55.635Z,100060.91
2023-01-12T21:42:44.667Z,100064.75
2023-01-12T21:45:15.342Z,100061.47
2023-01-12T21:47:47.844Z,100056.13
2023-01-12T21:50:17.852Z,100055.44
2023-01-12T21:52:48.561Z,100059.84
2023-01-12T21:55:19.640Z,100063.66
2023-01-12T21:57:49.452Z,100062.56
2023-01-12T22:00:19.942Z,100061.72
2023-01-12T22:02:51.347Z,100063.56
2023-01-12T22:05:22.508Z,100059.94
2023-01-12T22:07:55.501Z,100062.53
2023-01-12T22:10:30.607Z,100052.13
2023-01-12T22:13:05.806Z,100059.25
2023-01-12T22:15:36.219Z,100049.75
2023-01-12T22:18:07.050Z,100049.50
2023-01-12T22:20:37.555Z,100048.47
2023-01-12T22:23:07.676Z,100057.16
2023-01-12T22:25:38.607Z,100047.97
2023-01-12T22:28:09.536Z,100049.75
2023-01-12T22:30:37.349Z,100050.38
2023-01-12T22:33:06.997Z,100049.94
2023-01-12T22:35:37.453Z,100042.81
2023-01-12T22:38:07.944Z,100041.91
2023-01-12T22:40:38.483Z,100045.72
2023-01-12T22:43:25.833Z,100042.97
2023-01-12T22:45:58.940Z,100040.59
2023-01-12T22:48:29.016Z,100032.78
2023-01-12T22:51:01.296Z,100026.22
2023-01-12T22:53:31.165Z,100025.06
2023-01-12T22:56:03.437Z,100034.06
2023-01-12T22:58:33.394Z,100034.34
2023-01-12T23:01:09.610Z,100026.25
2023-01-12T23:03:39.244Z,100022.72
2023-01-12T23:06:15.985Z,100018.44
2023-01-12T23:08:46.363Z,100023.63
2023-01-12T23:11:21.710Z,100017.53
2023-01-12T23:13:52.255Z,100022.13
2023-01-12T23:16:22.915Z,100022.03
2023-01-12T23:18:55.282Z,100020.34
2023-01-12T23:21:28.554Z,100017.75
2023-01-12T23:24:00.840Z,100016.22
2023-01-12T23:26:33.499Z,100025.41
2023-01-12T23:29:04.436Z,100028.09
2023-01-12T23:31:34.848Z,100024.81
2023-01-12T23:34:04.629Z,100021.47
2023-01-12T23:36:33.365Z,100010.69
2023-01-12T23:39:08.251Z,100020.41
2023-01-12T23:41:39.675Z,100018.22
2023-01-12T23:44:10.960Z,100018.00
2023-01-12T23:46:43.192Z,100012.31
2023-01-12T23:49:12.874Z,100014.03
2023-01-12T23:51:42.656Z,100014.69
2023-01-12T23:54:18.439Z,100013.44
2023-01-12T23:56:55.007Z,100014.59
2023-01-12T23:59:24.629Z,100013.50
